sensor_id;sensor_type;location;lat;lon;timestamp;P1;durP1;ratioP1;P2;durP2;ratioP2
19038;SDS011;9652;49.014;12.052;2023-04-02T00:02:54;1.43;;;1.33;;
19038;SDS011;9652;49.014;12.052;2023-04-02T00:08:19;1.63;;;1.53;;
19038;SDS011;9652;49.014;12.052;2023-04-02T00:10:55;1.20;;;1.20;;
19038;SDS011;9652;49.014;12.052;2023-04-02T00:13:29;1.43;;;1.40;;
19038;SDS011;9652;49.014;12.052;2023-04-02T00:16:03;1.43;;;1.33;;
19038;SDS011;9652;49.014;12.052;2023-04-02T00:18:33;1.50;;;1.50;;
19038;SDS011;9652;49.014;12.052;2023-04-02T00:21:10;1.33;;;1.23;;
19038;SDS011;9652;49.014;12.052;2023-04-02T00:23:45;1.47;;;1.47;;
19038;SDS011;9652;49.014;12.052;2023-04-02T00:26:23;1.33;;;1.30;;
19038;SDS011;9652;49.014;12.052;2023-04-02T00:28:56;1.50;;;1.40;;
19038;SDS011;9652;49.014;12.052;2023-04-02T00:31:26;1.77;;;1.67;;
19038;SDS011;9652;49.014;12.052;2023-04-02T00:33:54;1.37;;;1.23;;
19038;SDS011;9652;49.014;12.052;2023-04-02T00:36:24;1.60;;;1.60;;
19038;SDS011;9652;49.014;12.052;2023-04-02T00:38:56;1.77;;;1.60;;
19038;SDS011;9652;49.014;12.052;2023-04-02T00:41:25;1.73;;;1.40;;
19038;SDS011;9652;49.014;12.052;2023-04-02T00:44:00;1.87;;;1.77;;
19038;SDS011;9652;49.014;12.052;2023-04-02T00:46:32;1.17;;;1.17;;
19038;SDS011;9652;49.014;12.052;2023-04-02T00:49:13;1.57;;;1.47;;
19038;SDS011;9652;49.014;12.052;2023-04-02T00:51:55;1.60;;;1.53;;
19038;SDS011;9652;49.014;12.052;2023-04-02T00:54:28;1.20;;;1.20;;
19038;SDS011;9652;49.014;12.052;2023-04-02T00:57:02;1.30;;;1.30;;
19038;SDS011;9652;49.014;12.052;2023-04-02T00:59:30;1.53;;;1.43;;
19038;SDS011;9652;49.014;12.052;2023-04-02T01:04:52;1.40;;;1.40;;
19038;SDS011;9652;49.014;12.052;2023-04-02T01:07:23;1.67;;;1.57;;
19038;SDS011;9652;49.014;12.052;2023-04-02T01:10:10;1.90;;;1.80;;
19038;SDS011;9652;49.014;12.052;2023-04-02T01:13:10;1.60;;;1.50;;
19038;SDS011;9652;49.014;12.052;2023-04-02T01:15:50;1.60;;;1.50;;
19038;SDS011;9652;49.014;12.052;2023-04-02T01:18:28;1.60;;;1.60;;
19038;SDS011;9652;49.014;12.052;2023-04-02T01:21:19;1.33;;;1.30;;
19038;SDS011;9652;49.014;12.052;2023-04-02T01:24:16;1.50;;;1.40;;
19038;SDS011;9652;49.014;12.052;2023-04-02T01:26:48;1.53;;;1.43;;
19038;SDS011;9652;49.014;12.052;2023-04-02T01:29:24;1.43;;;1.40;;
19038;SDS011;9652;49.014;12.052;2023-04-02T01:31:56;1.90;;;1.70;;
19038;SDS011;9652;49.014;12.052;2023-04-02T01:34:28;1.70;;;1.60;;
19038;SDS011;9652;49.014;12.052;2023-04-02T01:36:59;1.80;;;1.70;;
19038;SDS011;9652;49.014;12.052;2023-04-02T01:39:39;1.60;;;1.57;;
19038;SDS011;9652;49.014;12.052;2023-04-02T01:42:27;1.70;;;1.60;;
19038;SDS011;9652;49.014;12.052;2023-04-02T01:45:03;1.53;;;1.43;;
19038;SDS011;9652;49.014;12.052;2023-04-02T01:47:34;1.20;;;1.10;;
19038;SDS011;9652;49.014;12.052;2023-04-02T01:50:04;2.03;;;1.53;;
19038;SDS011;9652;49.014;12.052;2023-04-02T01:52:48;1.53;;;1.43;;
19038;SDS011;9652;49.014;12.052;2023-04-02T01:55:23;1.83;;;1.73;;
19038;SDS011;9652;49.014;12.052;2023-04-02T01:57:57;1.50;;;1.40;;
19038;SDS011;9652;49.014;12.052;2023-04-02T02:00:29;1.57;;;1.47;;
19038;SDS011;9652;49.014;12.052;2023-04-02T02:03:00;1.87;;;1.73;;
19038;SDS011;9652;49.014;12.052;2023-04-02T02:05:31;1.63;;;1.53;;
19038;SDS011;9652;49.014;12.052;2023-04-02T02:07:58;1.50;;;1.40;;
19038;SDS011;9652;49.014;12.052;2023-04-02T02:10:27;1.73;;;1.63;;
19038;SDS011;9652;49.014;12.052;2023-04-02T02:13:00;1.80;;;1.70;;
19038;SDS011;9652;49.014;12.052;2023-04-02T02:15:30;1.57;;;1.47;;
19038;SDS011;9652;49.014;12.052;2023-04-02T02:17:59;1.70;;;1.60;;
19038;SDS011;9652;49.014;12.052;2023-04-02T02:20:30;1.97;;;1.87;;
19038;SDS011;9652;49.014;12.052;2023-04-02T02:23:00;1.50;;;1.50;;
19038;SDS011;9652;49.014;12.052;2023-04-02T02:25:30;1.93;;;1.83;;
19038;SDS011;9652;49.014;12.052;2023-04-02T02:28:01;3.20;;;1.57;;
19038;SDS011;9652;49.014;12.052;2023-04-02T02:30:35;1.67;;;1.57;;
19038;SDS011;9652;49.014;12.052;2023-04-02T02:33:10;1.80;;;1.70;;
19038;SDS011;9652;49.014;12.052;2023-04-02T02:35:47;1.67;;;1.57;;
19038;SDS011;9652;49.014;12.052;2023-04-02T02:38:24;1.57;;;1.47;;
19038;SDS011;9652;49.014;12.052;2023-04-02T02:41:23;1.97;;;1.77;;
19038;SDS011;9652;49.014;12.052;2023-04-02T02:44:01;1.80;;;1.70;;
19038;SDS011;9652;49.014;12.052;2023-04-02T02:46:39;2.20;;;2.10;;
19038;SDS011;9652;49.014;12.052;2023-04-02T02:49:13;2.27;;;1.70;;
19038;SDS011;9652;49.014;12.052;2023-04-02T02:51:48;1.53;;;1.43;;
19038;SDS011;9652;49.014;12.052;2023-04-02T02:54:28;1.50;;;1.40;;
19038;SDS011;9652;49.014;12.052;2023-04-02T02:56:59;2.07;;;1.97;;
19038;SDS011;9652;49.014;12.052;2023-04-02T02:59:31;2.20;;;2.07;;
19038;SDS011;9652;49.014;12.052;2023-04-02T03:02:02;1.33;;;1.23;;
19038;SDS011;9652;49.014;12.052;2023-04-02T03:04:31;1.60;;;1.50;;
19038;SDS011;9652;49.014;12.052;2023-04-02T03:07:02;1.57;;;1.47;;
19038;SDS011;9652;49.014;12.052;2023-04-02T03:09:33;1.93;;;1.80;;
19038;SDS011;9652;49.014;12.052;2023-04-02T03:12:18;1.70;;;1.60;;
19038;SDS011;9652;49.014;12.052;2023-04-02T03:15:05;2.80;;;1.90;;
19038;SDS011;9652;49.014;12.052;2023-04-02T03:17:46;2.10;;;2.00;;
19038;SDS011;9652;49.014;12.052;2023-04-02T03:20:19;4.40;;;1.83;;
19038;SDS011;9652;49.014;12.052;2023-04-02T03:22:57;1.83;;;1.73;;
19038;SDS011;9652;49.014;12.052;2023-04-02T03:25:37;2.10;;;1.90;;
19038;SDS011;9652;49.014;12.052;2023-04-02T03:28:11;1.90;;;1.80;;
19038;SDS011;9652;49.014;12.052;2023-04-02T03:30:45;1.70;;;1.60;;
19038;SDS011;9652;49.014;12.052;2023-04-02T03:33:22;1.83;;;1.73;;
19038;SDS011;9652;49.014;12.052;2023-04-02T03:35:57;4.10;;;2.23;;
19038;SDS011;9652;49.014;12.052;2023-04-02T03:38:29;3.40;;;1.67;;
19038;SDS011;9652;49.014;12.052;2023-04-02T03:41:02;2.20;;;2.10;;
19038;SDS011;9652;49.014;12.052;2023-04-02T03:43:38;1.50;;;1.40;;
19038;SDS011;9652;49.014;12.052;2023-04-02T03:46:13;1.70;;;1.60;;
19038;SDS011;9652;49.014;12.052;2023-04-02T03:48:54;1.93;;;1.83;;
19038;SDS011;9652;49.014;12.052;2023-04-02T03:51:29;1.83;;;1.73;;
19038;SDS011;9652;49.014;12.052;2023-04-02T03:54:02;2.43;;;1.90;;
19038;SDS011;9652;49.014;12.052;2023-04-02T03:56:31;2.37;;;2.20;;
19038;SDS011;9652;49.014;12.052;2023-04-02T03:59:10;2.60;;;1.87;;
19038;SDS011;9652;49.014;12.052;2023-04-02T04:01:48;2.43;;;1.40;;
19038;SDS011;9652;49.014;12.052;2023-04-02T04:04:26;1.97;;;1.87;;
19038;SDS011;9652;49.014;12.052;2023-04-02T04:06:57;2.03;;;1.80;;
19038;SDS011;9652;49.014;12.052;2023-04-02T04:09:28;2.13;;;2.03;;
19038;SDS011;9652;49.014;12.052;2023-04-02T04:12:04;1.50;;;1.40;;
19038;SDS011;9652;49.014;12.052;2023-04-02T04:14:41;1.97;;;1.87;;
19038;SDS011;9652;49.014;12.052;2023-04-02T04:17:16;1.90;;;1.80;;
19038;SDS011;9652;49.014;12.052;2023-04-02T04:20:00;1.73;;;1.63;;
19038;SDS011;9652;49.014;12.052;2023-04-02T04:22:41;2.20;;;2.10;;
19038;SDS011;9652;49.014;12.052;2023-04-02T04:25:18;3.03;;;1.90;;
19038;SDS011;9652;49.014;12.052;2023-04-02T04:27:58;1.77;;;1.67;;
19038;SDS011;9652;49.014;12.052;2023-04-02T04:30:43;2.57;;;2.37;;
19038;SDS011;9652;49.014;12.052;2023-04-02T04:33:18;2.00;;;1.90;;
19038;SDS011;9652;49.014;12.052;2023-04-02T04:35:57;1.90;;;1.80;;
19038;SDS011;9652;49.014;12.052;2023-04-02T04:38:32;1.73;;;1.63;;
19038;SDS011;9652;49.014;12.052;2023-04-02T04:41:12;1.60;;;1.50;;
19038;SDS011;9652;49.014;12.052;2023-04-02T04:43:46;2.10;;;1.90;;
19038;SDS011;9652;49.014;12.052;2023-04-02T04:46:21;1.93;;;1.70;;
19038;SDS011;9652;49.014;12.052;2023-04-02T04:48:58;2.53;;;2.00;;
19038;SDS011;9652;49.014;12.052;2023-04-02T04:51:34;1.70;;;1.60;;
19038;SDS011;9652;49.014;12.052;2023-04-02T04:54:09;2.13;;;2.03;;
19038;SDS011;9652;49.014;12.052;2023-04-02T04:56:43;2.00;;;1.90;;
19038;SDS011;9652;49.014;12.052;2023-04-02T04:59:17;1.97;;;1.87;;
19038;SDS011;9652;49.014;12.052;2023-04-02T05:01:54;1.83;;;1.73;;
19038;SDS011;9652;49.014;12.052;2023-04-02T05:04:29;1.80;;;1.70;;
19038;SDS011;9652;49.014;12.052;2023-04-02T05:07:04;1.77;;;1.67;;
19038;SDS011;9652;49.014;12.052;2023-04-02T05:09:37;2.40;;;1.70;;
19038;SDS011;9652;49.014;12.052;2023-04-02T05:12:15;2.43;;;1.73;;
19038;SDS011;9652;49.014;12.052;2023-04-02T05:14:52;1.70;;;1.60;;
19038;SDS011;9652;49.014;12.052;2023-04-02T05:17:28;1.60;;;1.60;;
19038;SDS011;9652;49.014;12.052;2023-04-02T05:20:02;1.77;;;1.67;;
19038;SDS011;9652;49.014;12.052;2023-04-02T05:22:46;1.63;;;1.53;;
19038;SDS011;9652;49.014;12.052;2023-04-02T05:25:22;3.43;;;1.67;;
19038;SDS011;9652;49.014;12.052;2023-04-02T05:27:55;1.50;;;1.40;;
19038;SDS011;9652;49.014;12.052;2023-04-02T05:30:41;1.43;;;1.43;;
19038;SDS011;9652;49.014;12.052;2023-04-02T05:33:20;1.63;;;1.63;;
19038;SDS011;9652;49.014;12.052;2023-04-02T05:35:55;1.97;;;1.87;;
19038;SDS011;9652;49.014;12.052;2023-04-02T05:38:31;1.57;;;1.47;;
19038;SDS011;9652;49.014;12.052;2023-04-02T05:41:02;2.00;;;1.90;;
19038;SDS011;9652;49.014;12.052;2023-04-02T05:43:42;1.90;;;1.80;;
19038;SDS011;9652;49.014;12.052;2023-04-02T05:46:15;1.60;;;1.50;;
19038;SDS011;9652;49.014;12.052;2023-04-02T05:48:51;1.77;;;1.67;;
19038;SDS011;9652;49.014;12.052;2023-04-02T05:51:25;2.00;;;1.80;;
19038;SDS011;9652;49.014;12.052;2023-04-02T05:54:05;1.37;;;1.37;;
19038;SDS011;9652;49.014;12.052;2023-04-02T05:56:49;1.70;;;1.60;;
19038;SDS011;9652;49.014;12.052;2023-04-02T05:59:21;1.77;;;1.67;;
19038;SDS011;9652;49.014;12.052;2023-04-02T06:01:56;1.60;;;1.50;;
19038;SDS011;9652;49.014;12.052;2023-04-02T06:04:33;1.70;;;1.60;;
19038;SDS011;9652;49.014;12.052;2023-04-02T06:07:10;1.60;;;1.60;;
19038;SDS011;9652;49.014;12.052;2023-04-02T06:09:49;1.53;;;1.53;;
19038;SDS011;9652;49.014;12.052;2023-04-02T06:12:26;1.53;;;1.53;;
19038;SDS011;9652;49.014;12.052;2023-04-02T06:15:04;1.60;;;1.50;;
19038;SDS011;9652;49.014;12.052;2023-04-02T06:17:42;1.53;;;1.53;;
19038;SDS011;9652;49.014;12.052;2023-04-02T06:20:16;1.63;;;1.53;;
19038;SDS011;9652;49.014;12.052;2023-04-02T06:22:46;1.93;;;1.83;;
19038;SDS011;9652;49.014;12.052;2023-04-02T06:25:20;1.20;;;1.20;;
19038;SDS011;9652;49.014;12.052;2023-04-02T06:27:53;1.80;;;1.70;;
19038;SDS011;9652;49.014;12.052;2023-04-02T06:30:26;1.50;;;1.40;;
19038;SDS011;9652;49.014;12.052;2023-04-02T06:32:58;2.50;;;1.50;;
19038;SDS011;9652;49.014;12.052;2023-04-02T06:35:27;1.50;;;1.50;;
19038;SDS011;9652;49.014;12.052;2023-04-02T06:37:58;1.70;;;1.60;;
19038;SDS011;9652;49.014;12.052;2023-04-02T06:40:36;1.57;;;1.47;;
19038;SDS011;9652;49.014;12.052;2023-04-02T06:43:31;1.10;;;1.10;;
19038;SDS011;9652;49.014;12.052;2023-04-02T06:46:14;1.50;;;1.50;;
19038;SDS011;9652;49.014;12.052;2023-04-02T06:49:00;1.70;;;1.60;;
19038;SDS011;9652;49.014;12.052;2023-04-02T06:51:46;1.40;;;1.30;;
19038;SDS011;9652;49.014;12.052;2023-04-02T06:54:17;2.03;;;1.40;;
19038;SDS011;9652;49.014;12.052;2023-04-02T06:56:52;1.50;;;1.50;;
19038;SDS011;9652;49.014;12.052;2023-04-02T06:59:29;1.40;;;1.20;;
19038;SDS011;9652;49.014;12.052;2023-04-02T07:01:57;1.67;;;1.57;;
19038;SDS011;9652;49.014;12.052;2023-04-02T07:04:28;1.57;;;1.47;;
19038;SDS011;9652;49.014;12.052;2023-04-02T07:06:56;3.83;;;1.73;;
19038;SDS011;9652;49.014;12.052;2023-04-02T07:09:26;1.60;;;1.50;;
19038;SDS011;9652;49.014;12.052;2023-04-02T07:11:58;1.77;;;1.67;;
19038;SDS011;9652;49.014;12.052;2023-04-02T07:14:25;1.70;;;1.60;;
19038;SDS011;9652;49.014;12.052;2023-04-02T07:16:53;1.43;;;1.33;;
19038;SDS011;9652;49.014;12.052;2023-04-02T07:19:21;1.23;;;1.23;;
19038;SDS011;9652;49.014;12.052;2023-04-02T07:21:52;1.20;;;1.20;;
19038;SDS011;9652;49.014;12.052;2023-04-02T07:24:20;2.40;;;1.17;;
19038;SDS011;9652;49.014;12.052;2023-04-02T07:26:47;1.17;;;1.17;;
19038;SDS011;9652;49.014;12.052;2023-04-02T07:29:16;1.13;;;1.13;;
19038;SDS011;9652;49.014;12.052;2023-04-02T07:31:44;1.27;;;1.27;;
19038;SDS011;9652;49.014;12.052;2023-04-02T07:34:11;1.10;;;1.10;;
19038;SDS011;9652;49.014;12.052;2023-04-02T07:36:38;1.00;;;1.00;;
19038;SDS011;9652;49.014;12.052;2023-04-02T07:39:05;0.97;;;0.97;;
19038;SDS011;9652;49.014;12.052;2023-04-02T07:41:32;0.80;;;0.80;;
19038;SDS011;9652;49.014;12.052;2023-04-02T07:44:17;1.07;;;1.07;;
19038;SDS011;9652;49.014;12.052;2023-04-02T07:46:44;1.10;;;1.10;;
19038;SDS011;9652;49.014;12.052;2023-04-02T07:49:11;1.00;;;1.00;;
19038;SDS011;9652;49.014;12.052;2023-04-02T07:51:39;1.30;;;1.30;;
19038;SDS011;9652;49.014;12.052;2023-04-02T07:54:07;1.20;;;1.10;;
19038;SDS011;9652;49.014;12.052;2023-04-02T07:56:35;1.50;;;1.40;;
19038;SDS011;9652;49.014;12.052;2023-04-02T07:59:03;1.40;;;1.40;;
19038;SDS011;9652;49.014;12.052;2023-04-02T08:01:32;1.27;;;1.27;;
19038;SDS011;9652;49.014;12.052;2023-04-02T08:04:01;1.00;;;1.00;;
19038;SDS011;9652;49.014;12.052;2023-04-02T08:06:31;1.43;;;1.33;;
19038;SDS011;9652;49.014;12.052;2023-04-02T08:08:59;1.40;;;1.30;;
19038;SDS011;9652;49.014;12.052;2023-04-02T08:11:26;1.00;;;1.00;;
19038;SDS011;9652;49.014;12.052;2023-04-02T08:13:53;1.10;;;1.10;;
19038;SDS011;9652;49.014;12.052;2023-04-02T08:16:20;1.43;;;1.37;;
19038;SDS011;9652;49.014;12.052;2023-04-02T08:18:50;1.50;;;1.40;;
19038;SDS011;9652;49.014;12.052;2023-04-02T08:21:17;1.27;;;1.17;;
19038;SDS011;9652;49.014;12.052;2023-04-02T08:23:45;1.67;;;1.57;;
19038;SDS011;9652;49.014;12.052;2023-04-02T08:26:15;1.43;;;1.33;;
19038;SDS011;9652;49.014;12.052;2023-04-02T08:28:43;1.50;;;1.40;;
19038;SDS011;9652;49.014;12.052;2023-04-02T08:31:10;1.47;;;1.37;;
19038;SDS011;9652;49.014;12.052;2023-04-02T08:33:37;1.10;;;1.10;;
19038;SDS011;9652;49.014;12.052;2023-04-02T08:36:06;1.70;;;1.60;;
19038;SDS011;9652;49.014;12.052;2023-04-02T08:38:40;1.30;;;1.30;;
19038;SDS011;9652;49.014;12.052;2023-04-02T08:41:09;1.27;;;1.27;;
19038;SDS011;9652;49.014;12.052;2023-04-02T08:43:55;1.30;;;1.30;;
19038;SDS011;9652;49.014;12.052;2023-04-02T08:46:40;1.20;;;1.20;;
19038;SDS011;9652;49.014;12.052;2023-04-02T08:49:17;2.10;;;1.43;;
19038;SDS011;9652;49.014;12.052;2023-04-02T08:51:52;1.60;;;1.50;;
19038;SDS011;9652;49.014;12.052;2023-04-02T08:54:20;1.43;;;1.33;;
19038;SDS011;9652;49.014;12.052;2023-04-02T08:56:53;1.53;;;1.43;;
19038;SDS011;9652;49.014;12.052;2023-04-02T08:59:29;1.50;;;1.40;;
19038;SDS011;9652;49.014;12.052;2023-04-02T09:02:02;1.20;;;1.20;;
19038;SDS011;9652;49.014;12.052;2023-04-02T09:04:52;1.73;;;1.50;;
19038;SDS011;9652;49.014;12.052;2023-04-02T09:07:23;1.67;;;1.57;;
19038;SDS011;9652;49.014;12.052;2023-04-02T09:09:52;1.50;;;1.40;;
19038;SDS011;9652;49.014;12.052;2023-04-02T09:12:22;1.67;;;1.57;;
19038;SDS011;9652;49.014;12.052;2023-04-02T09:14:57;1.53;;;1.43;;
19038;SDS011;9652;49.014;12.052;2023-04-02T09:17:40;1.83;;;1.53;;
19038;SDS011;9652;49.014;12.052;2023-04-02T09:20:12;2.40;;;1.40;;
19038;SDS011;9652;49.014;12.052;2023-04-02T09:22:44;1.37;;;1.27;;
19038;SDS011;9652;49.014;12.052;2023-04-02T09:25:16;1.67;;;1.27;;
19038;SDS011;9652;49.014;12.052;2023-04-02T09:27:47;1.47;;;1.37;;
19038;SDS011;9652;49.014;12.052;2023-04-02T09:30:20;1.70;;;1.60;;
19038;SDS011;9652;49.014;12.052;2023-04-02T09:33:02;1.23;;;1.20;;
19038;SDS011;9652;49.014;12.052;2023-04-02T09:35:33;1.50;;;1.40;;
19038;SDS011;9652;49.014;12.052;2023-04-02T09:38:14;1.30;;;1.30;;
19038;SDS011;9652;49.014;12.052;2023-04-02T09:40:47;1.10;;;1.10;;
19038;SDS011;9652;49.014;12.052;2023-04-02T09:43:18;1.30;;;1.20;;
19038;SDS011;9652;49.014;12.052;2023-04-02T09:45:59;1.10;;;1.10;;
19038;SDS011;9652;49.014;12.052;2023-04-02T09:48:29;1.70;;;1.40;;
19038;SDS011;9652;49.014;12.052;2023-04-02T09:53:50;1.40;;;1.30;;
19038;SDS011;9652;49.014;12.052;2023-04-02T09:56:34;1.13;;;1.13;;
19038;SDS011;9652;49.014;12.052;2023-04-02T09:59:03;1.50;;;1.40;;
19038;SDS011;9652;49.014;12.052;2023-04-02T10:01:39;1.67;;;1.57;;
19038;SDS011;9652;49.014;12.052;2023-04-02T10:07:01;1.03;;;1.03;;
19038;SDS011;9652;49.014;12.052;2023-04-02T10:09:33;1.20;;;1.10;;
19038;SDS011;9652;49.014;12.052;2023-04-02T10:12:03;1.10;;;1.10;;
19038;SDS011;9652;49.014;12.052;2023-04-02T10:14:36;1.30;;;1.20;;
19038;SDS011;9652;49.014;12.052;2023-04-02T10:17:11;1.17;;;1.07;;
19038;SDS011;9652;49.014;12.052;2023-04-02T10:19:45;1.23;;;1.23;;
19038;SDS011;9652;49.014;12.052;2023-04-02T10:22:16;1.13;;;1.13;;
19038;SDS011;9652;49.014;12.052;2023-04-02T10:24:47;1.20;;;1.20;;
19038;SDS011;9652;49.014;12.052;2023-04-02T10:27:18;0.93;;;0.93;;
19038;SDS011;9652;49.014;12.052;2023-04-02T10:30:04;0.93;;;0.93;;
19038;SDS011;9652;49.014;12.052;2023-04-02T10:32:45;1.20;;;1.10;;
19038;SDS011;9652;49.014;12.052;2023-04-02T10:35:22;1.60;;;1.50;;
19038;SDS011;9652;49.014;12.052;2023-04-02T10:38:10;1.50;;;1.40;;
19038;SDS011;9652;49.014;12.052;2023-04-02T10:40:58;1.90;;;1.40;;
19038;SDS011;9652;49.014;12.052;2023-04-02T10:43:42;1.30;;;1.30;;
19038;SDS011;9652;49.014;12.052;2023-04-02T10:46:26;1.30;;;1.30;;
19038;SDS011;9652;49.014;12.052;2023-04-02T10:49:03;1.40;;;1.40;;
19038;SDS011;9652;49.014;12.052;2023-04-02T10:51:42;1.40;;;1.30;;
19038;SDS011;9652;49.014;12.052;2023-04-02T10:54:17;1.30;;;1.30;;
19038;SDS011;9652;49.014;12.052;2023-04-02T10:57:02;1.43;;;1.33;;
19038;SDS011;9652;49.014;12.052;2023-04-02T10:59:37;1.43;;;1.33;;
19038;SDS011;9652;49.014;12.052;2023-04-02T11:02:22;1.40;;;1.40;;
19038;SDS011;9652;49.014;12.052;2023-04-02T11:05:00;1.27;;;1.23;;
19038;SDS011;9652;49.014;12.052;2023-04-02T11:07:42;1.70;;;1.60;;
19038;SDS011;9652;49.014;12.052;2023-04-02T11:10:18;1.30;;;1.30;;
19038;SDS011;9652;49.014;12.052;2023-04-02T11:12:50;1.30;;;1.30;;
19038;SDS011;9652;49.014;12.052;2023-04-02T11:15:23;1.47;;;1.47;;
19038;SDS011;9652;49.014;12.052;2023-04-02T11:17:51;1.73;;;1.63;;
19038;SDS011;9652;49.014;12.052;2023-04-02T11:23:28;1.50;;;1.50;;
19038;SDS011;9652;49.014;12.052;2023-04-02T11:29:05;1.30;;;1.30;;
19038;SDS011;9652;49.014;12.052;2023-04-02T11:31:41;1.70;;;1.60;;
19038;SDS011;9652;49.014;12.052;2023-04-02T11:34:11;1.33;;;1.30;;
19038;SDS011;9652;49.014;12.052;2023-04-02T11:36:56;1.20;;;1.20;;
19038;SDS011;9652;49.014;12.052;2023-04-02T11:39:49;1.57;;;1.47;;
19038;SDS011;9652;49.014;12.052;2023-04-02T11:42:22;1.57;;;1.47;;
19038;SDS011;9652;49.014;12.052;2023-04-02T11:44:55;1.20;;;1.20;;
19038;SDS011;9652;49.014;12.052;2023-04-02T11:47:26;1.30;;;1.20;;
19038;SDS011;9652;49.014;12.052;2023-04-02T11:50:02;1.53;;;1.43;;
19038;SDS011;9652;49.014;12.052;2023-04-02T11:52:54;1.27;;;1.27;;
19038;SDS011;9652;49.014;12.052;2023-04-02T11:55:28;1.33;;;1.33;;
19038;SDS011;9652;49.014;12.052;2023-04-02T12:01:34;1.20;;;1.20;;
19038;SDS011;9652;49.014;12.052;2023-04-02T12:04:41;1.30;;;1.30;;
19038;SDS011;9652;49.014;12.052;2023-04-02T12:10:48;1.40;;;1.40;;
19038;SDS011;9652;49.014;12.052;2023-04-02T12:16:15;1.80;;;1.70;;
19038;SDS011;9652;49.014;12.052;2023-04-02T12:18:46;2.23;;;1.63;;
19038;SDS011;9652;49.014;12.052;2023-04-02T12:21:18;1.63;;;1.53;;
19038;SDS011;9652;49.014;12.052;2023-04-02T12:23:50;1.50;;;1.50;;
19038;SDS011;9652;49.014;12.052;2023-04-02T12:26:23;1.57;;;1.47;;
19038;SDS011;9652;49.014;12.052;2023-04-02T12:29:21;1.30;;;1.20;;
19038;SDS011;9652;49.014;12.052;2023-04-02T12:31:50;1.80;;;1.70;;
19038;SDS011;9652;49.014;12.052;2023-04-02T12:34:21;1.33;;;1.33;;
19038;SDS011;9652;49.014;12.052;2023-04-02T12:36:51;1.70;;;1.60;;
19038;SDS011;9652;49.014;12.052;2023-04-02T12:39:21;1.33;;;1.33;;
19038;SDS011;9652;49.014;12.052;2023-04-02T12:41:48;1.43;;;1.43;;
19038;SDS011;9652;49.014;12.052;2023-04-02T12:44:16;1.80;;;1.70;;
19038;SDS011;9652;49.014;12.052;2023-04-02T12:46:46;1.80;;;1.70;;
19038;SDS011;9652;49.014;12.052;2023-04-02T12:49:21;1.70;;;1.60;;
19038;SDS011;9652;49.014;12.052;2023-04-02T12:52:09;1.80;;;1.70;;
19038;SDS011;9652;49.014;12.052;2023-04-02T12:54:43;2.17;;;1.90;;
19038;SDS011;9652;49.014;12.052;2023-04-02T12:57:27;2.20;;;2.10;;
19038;SDS011;9652;49.014;12.052;2023-04-02T13:03:01;1.80;;;1.70;;
19038;SDS011;9652;49.014;12.052;2023-04-02T13:05:51;2.00;;;1.90;;
19038;SDS011;9652;49.014;12.052;2023-04-02T13:08:22;2.10;;;2.00;;
19038;SDS011;9652;49.014;12.052;2023-04-02T13:10:55;2.27;;;2.17;;
19038;SDS011;9652;49.014;12.052;2023-04-02T13:13:26;2.50;;;2.30;;
19038;SDS011;9652;49.014;12.052;2023-04-02T13:16:05;1.80;;;1.70;;
19038;SDS011;9652;49.014;12.052;2023-04-02T13:18:51;1.90;;;1.80;;
19038;SDS011;9652;49.014;12.052;2023-04-02T13:21:36;2.10;;;2.00;;
19038;SDS011;9652;49.014;12.052;2023-04-02T13:24:04;2.30;;;2.20;;
19038;SDS011;9652;49.014;12.052;2023-04-02T13:26:42;2.30;;;2.20;;
19038;SDS011;9652;49.014;12.052;2023-04-02T13:29:15;2.23;;;2.13;;
19038;SDS011;9652;49.014;12.052;2023-04-02T13:31:49;2.70;;;2.50;;
19038;SDS011;9652;49.014;12.052;2023-04-02T13:34:18;2.37;;;2.27;;
19038;SDS011;9652;49.014;12.052;2023-04-02T13:36:47;2.67;;;2.47;;
19038;SDS011;9652;49.014;12.052;2023-04-02T13:39:14;2.60;;;2.40;;
19038;SDS011;9652;49.014;12.052;2023-04-02T13:41:42;3.10;;;2.90;;
19038;SDS011;9652;49.014;12.052;2023-04-02T13:44:18;3.10;;;2.90;;
19038;SDS011;9652;49.014;12.052;2023-04-02T13:46:48;2.80;;;2.60;;
19038;SDS011;9652;49.014;12.052;2023-04-02T13:49:16;3.17;;;2.97;;
19038;SDS011;9652;49.014;12.052;2023-04-02T13:51:45;3.23;;;3.03;;
19038;SDS011;9652;49.014;12.052;2023-04-02T13:54:17;3.27;;;3.07;;
19038;SDS011;9652;49.014;12.052;2023-04-02T13:56:49;3.50;;;3.20;;
19038;SDS011;9652;49.014;12.052;2023-04-02T13:59:17;3.17;;;2.97;;
19038;SDS011;9652;49.014;12.052;2023-04-02T14:01:44;3.10;;;2.90;;
19038;SDS011;9652;49.014;12.052;2023-04-02T14:04:15;3.37;;;3.17;;
19038;SDS011;9652;49.014;12.052;2023-04-02T14:06:56;3.40;;;3.20;;
19038;SDS011;9652;49.014;12.052;2023-04-02T14:09:55;3.80;;;3.50;;
19038;SDS011;9652;49.014;12.052;2023-04-02T14:12:39;3.33;;;3.10;;
19038;SDS011;9652;49.014;12.052;2023-04-02T14:15:24;3.50;;;3.30;;
19038;SDS011;9652;49.014;12.052;2023-04-02T14:18:11;3.80;;;3.50;;
19038;SDS011;9652;49.014;12.052;2023-04-02T14:20:58;4.27;;;3.97;;
19038;SDS011;9652;49.014;12.052;2023-04-02T14:23:42;4.67;;;4.30;;
19038;SDS011;9652;49.014;12.052;2023-04-02T14:26:26;4.40;;;4.10;;
19038;SDS011;9652;49.014;12.052;2023-04-02T14:29:06;4.37;;;4.07;;
19038;SDS011;9652;49.014;12.052;2023-04-02T14:31:42;5.33;;;4.63;;
19038;SDS011;9652;49.014;12.052;2023-04-02T14:34:15;4.83;;;4.43;;
19038;SDS011;9652;49.014;12.052;2023-04-02T14:36:55;5.30;;;4.90;;
19038;SDS011;9652;49.014;12.052;2023-04-02T14:39:37;4.97;;;4.57;;
19038;SDS011;9652;49.014;12.052;2023-04-02T14:42:23;4.40;;;4.10;;
19038;SDS011;9652;49.014;12.052;2023-04-02T14:45:00;4.60;;;4.20;;
19038;SDS011;9652;49.014;12.052;2023-04-02T14:47:36;4.77;;;4.40;;
19038;SDS011;9652;49.014;12.052;2023-04-02T14:50:11;5.10;;;4.70;;
19038;SDS011;9652;49.014;12.052;2023-04-02T14:52:44;5.30;;;4.90;;
19038;SDS011;9652;49.014;12.052;2023-04-02T14:55:20;4.90;;;4.60;;
19038;SDS011;9652;49.014;12.052;2023-04-02T14:57:58;4.57;;;4.27;;
19038;SDS011;9652;49.014;12.052;2023-04-02T15:00:31;4.73;;;4.43;;
19038;SDS011;9652;49.014;12.052;2023-04-02T15:03:07;4.53;;;4.13;;
19038;SDS011;9652;49.014;12.052;2023-04-02T15:05:41;4.33;;;4.03;;
19038;SDS011;9652;49.014;12.052;2023-04-02T15:08:15;4.93;;;4.43;;
19038;SDS011;9652;49.014;12.052;2023-04-02T15:10:53;4.63;;;4.33;;
19038;SDS011;9652;49.014;12.052;2023-04-02T15:13:29;4.93;;;4.57;;
19038;SDS011;9652;49.014;12.052;2023-04-02T15:16:04;3.73;;;3.43;;
19038;SDS011;9652;49.014;12.052;2023-04-02T15:18:37;4.47;;;4.10;;
19038;SDS011;9652;49.014;12.052;2023-04-02T15:21:07;4.50;;;4.10;;
19038;SDS011;9652;49.014;12.052;2023-04-02T15:24:03;5.23;;;4.83;;
19038;SDS011;9652;49.014;12.052;2023-04-02T15:26:43;4.43;;;4.13;;
19038;SDS011;9652;49.014;12.052;2023-04-02T15:29:23;4.30;;;4.00;;
19038;SDS011;9652;49.014;12.052;2023-04-02T15:32:11;4.53;;;4.20;;
19038;SDS011;9652;49.014;12.052;2023-04-02T15:34:56;4.50;;;4.20;;
19038;SDS011;9652;49.014;12.052;2023-04-02T15:37:38;4.60;;;4.30;;
19038;SDS011;9652;49.014;12.052;2023-04-02T15:40:18;4.20;;;3.90;;
19038;SDS011;9652;49.014;12.052;2023-04-02T15:43:03;4.20;;;3.90;;
19038;SDS011;9652;49.014;12.052;2023-04-02T15:45:45;4.47;;;3.87;;
19038;SDS011;9652;49.014;12.052;2023-04-02T15:48:25;3.80;;;3.50;;
19038;SDS011;9652;49.014;12.052;2023-04-02T15:51:22;3.90;;;3.60;;
19038;SDS011;9652;49.014;12.052;2023-04-02T15:54:08;4.30;;;3.80;;
19038;SDS011;9652;49.014;12.052;2023-04-02T15:56:52;3.87;;;3.57;;
19038;SDS011;9652;49.014;12.052;2023-04-02T15:59:55;4.13;;;3.80;;
19038;SDS011;9652;49.014;12.052;2023-04-02T16:06:03;3.87;;;3.57;;
19038;SDS011;9652;49.014;12.052;2023-04-02T16:08:46;4.23;;;3.83;;
19038;SDS011;9652;49.014;12.052;2023-04-02T16:11:32;3.50;;;3.30;;
19038;SDS011;9652;49.014;12.052;2023-04-02T16:14:05;3.83;;;3.53;;